Time;durP1;ratioP1;P1;durP2;ratioP2;P2;SDS_P1;SDS_P2;PMS_P1;PMS_P2;Temp;Humidity;BMP_temperature;BMP_pressure;BME280_temperature;BME280_humidity;BME280_pressure;Samples;Min_cycle;Max_cycle;Signal;HPM_P1;HPM_P2
2021/06/19 00:02:16;;;;;;;0.65;0.40;;;;;;;16.77;71.68;100690.81;6292740;22;20054;-85
2021/06/19 00:04:43;;;;;;;0.50;0.40;;;;;;;16.77;70.97;100695.44;6290963;22;20079;-86
2021/06/19 00:07:09;;;;;;;0.65;0.50;;;;;;;16.79;72.15;100698.88;6264119;22;20024;-85
2021/06/19 00:09:39;;;;;;;0.50;0.50;;;;;;;16.74;71.70;100701.22;6316301;22;20016;-86
2021/06/19 00:12:05;;;;;;;0.63;0.50;;;;;;;16.68;72.79;100696.41;6287450;22;20023;-84
2021/06/19 00:14:32;;;;;;;0.50;0.40;;;;;;;16.68;71.69;100699.13;6262673;22;20087;-85
2021/06/19 00:16:58;;;;;;;0.40;0.40;;;;;;;16.70;71.73;100703.38;6257371;22;20024;-86
2021/06/19 00:19:25;;;;;;;0.60;0.40;;;;;;;16.78;70.55;100697.13;6256767;22;20007;-87
2021/06/19 00:21:52;;;;;;;0.95;0.40;;;;;;;16.81;70.70;100696.81;6308514;22;20046;-86
2021/06/19 00:24:23;;;;;;;0.57;0.57;;;;;;;16.75;71.59;100694.75;6284163;22;20020;-86
2021/06/19 00:26:50;;;;;;;1.67;0.47;;;;;;;16.69;71.22;100696.22;6290437;22;20015;-85
2021/06/19 00:29:17;;;;;;;0.50;0.50;;;;;;;16.66;71.23;100692.97;6261962;22;20474;-84
2021/06/19 00:31:45;;;;;;;0.57;0.50;;;;;;;16.64;71.25;100691.28;6293748;22;20019;-85
2021/06/19 00:34:12;;;;;;;0.40;0.40;;;;;;;16.62;71.06;100693.28;6294913;22;20021;-85
2021/06/19 00:36:39;;;;;;;1.27;0.57;;;;;;;16.69;70.94;100709.03;6292298;22;20041;-83
2021/06/19 00:39:06;;;;;;;1.13;0.50;;;;;;;16.69;70.53;100696.22;6292333;22;20389;-85
2021/06/19 00:41:34;;;;;;;0.57;0.40;;;;;;;16.73;70.25;100699.47;6291458;22;20061;-84
2021/06/19 00:44:05;;;;;;;0.63;0.40;;;;;;;16.73;70.17;100702.22;6265536;22;20158;-84
2021/06/19 00:46:31;;;;;;;0.40;0.40;;;;;;;16.69;70.01;100709.03;6314877;22;20023;-84
2021/06/19 00:48:57;;;;;;;1.33;0.47;;;;;;;16.72;70.10;100703.25;6280007;22;20023;-85
2021/06/19 00:51:23;;;;;;;0.45;0.45;;;;;;;16.70;70.16;100705.28;6255788;22;20023;-85
2021/06/19 00:53:49;;;;;;;0.65;0.50;;;;;;;16.63;70.57;100714.09;6282815;22;20073;-84
2021/06/19 00:56:15;;;;;;;0.88;0.60;;;;;;;16.59;70.88;100715.47;6287459;22;20071;-84
2021/06/19 00:58:42;;;;;;;0.55;0.50;;;;;;;16.58;70.90;100713.75;6310062;22;20020;-87
2021/06/19 01:01:08;;;;;;;0.52;0.52;;;;;;;16.57;70.55;100712.06;6286205;22;20015;-84
2021/06/19 01:03:35;;;;;;;1.05;0.60;;;;;;;16.55;71.29;100714.09;6283932;22;20019;-86
2021/06/19 01:06:01;;;;;;;0.60;0.60;;;;;;;16.51;71.35;100711.84;6285056;22;20020;-86
2021/06/19 01:08:27;;;;;;;1.65;0.70;;;;;;;16.46;71.58;100715.09;6284900;22;20034;-85
2021/06/19 01:10:54;;;;;;;0.63;0.52;;;;;;;16.49;71.73;100712.03;6284514;22;20015;-86
2021/06/19 01:13:20;;;;;;;2.30;0.60;;;;;;;16.49;72.47;100714.75;6281737;22;20126;-87
2021/06/19 01:15:47;;;;;;;0.93;0.52;;;;;;;16.42;73.37;100707.34;6256756;22;20051;-86
2021/06/19 01:18:13;;;;;;;0.90;0.50;;;;;;;16.35;72.22;100707.19;6282336;22;20073;-87
2021/06/19 01:20:39;;;;;;;1.23;0.60;;;;;;;16.40;71.85;100715.72;6280759;22;20024;-86
2021/06/19 01:23:05;;;;;;;0.60;0.50;;;;;;;16.46;71.32;100719.69;6282503;22;20091;-85
2021/06/19 01:25:37;;;;;;;0.70;0.60;;;;;;;16.48;71.54;100718.47;6283248;22;20039;-87
2021/06/19 01:28:07;;;;;;;0.82;0.50;;;;;;;16.47;71.32;100711.31;6261250;22;20077;-85
2021/06/19 01:30:34;;;;;;;1.48;0.60;;;;;;;16.44;72.56;100719.84;6285472;22;20167;-85
2021/06/19 01:33:00;;;;;;;0.70;0.50;;;;;;;16.43;72.04;100717.28;6262565;22;20046;-87
2021/06/19 01:35:26;;;;;;;1.70;0.60;;;;;;;16.44;71.84;100721.72;6260061;22;20055;-85
2021/06/19 01:37:56;;;;;;;0.70;0.50;;;;;;;16.47;71.74;100716.78;6293875;22;20027;-87
2021/06/19 01:40:26;;;;;;;0.70;0.50;;;;;;;16.46;71.42;100731.47;6295005;22;20068;-84
2021/06/19 01:42:53;;;;;;;0.70;0.60;;;;;;;16.42;71.67;100721.88;6265162;22;20035;-85
2021/06/19 01:45:27;;;;;;;0.47;0.43;;;;;;;16.44;71.21;100728.03;6310458;22;20035;-84
2021/06/19 01:47:54;;;;;;;0.47;0.47;;;;;;;16.45;71.32;100724.25;6259047;22;20491;-86
2021/06/19 01:50:23;;;;;;;1.05;0.57;;;;;;;16.47;71.66;100730.44;6258045;22;20023;-87
2021/06/19 01:52:50;;;;;;;0.75;0.57;;;;;;;16.44;72.35;100733.47;6260028;22;20019;-85
2021/06/19 01:55:17;;;;;;;0.70;0.50;;;;;;;16.35;72.28;100729.00;6259233;22;20103;-87
2021/06/19 01:57:44;;;;;;;0.50;0.50;;;;;;;16.33;72.65;100731.03;6287108;22;20084;-84
2021/06/19 02:00:20;;;;;;;0.75;0.57;;;;;;;16.26;73.12;100730.81;6259753;22;20016;-85
2021/06/19 02:02:46;;;;;;;1.23;0.55;;;;;;;16.16;73.16;100724.63;6260066;22;20016;-88
2021/06/19 02:05:14;;;;;;;0.93;0.50;;;;;;;16.14;72.94;100732.13;6229619;22;20050;-86
2021/06/19 02:07:54;;;;;;;0.50;0.50;;;;;;;16.11;73.08;100738.75;6237093;22;20016;-86
2021/06/19 02:10:26;;;;;;;0.50;0.50;;;;;;;16.12;72.83;100740.47;6256347;22;20023;-85
2021/06/19 02:12:52;;;;;;;0.40;0.40;;;;;;;16.17;72.81;100737.25;6282578;22;20021;-85
2021/06/19 02:15:19;;;;;;;0.60;0.52;;;;;;;16.22;72.82;100732.16;6280783;22;20028;-85
2021/06/19 02:17:45;;;;;;;0.45;0.45;;;;;;;16.21;72.35;100743.25;6282505;22;20020;-85
2021/06/19 02:20:13;;;;;;;0.60;0.60;;;;;;;16.24;72.34;100743.78;6278831;22;20067;-84
2021/06/19 02:22:39;;;;;;;0.50;0.50;;;;;;;16.27;72.14;100742.59;6276928;22;20064;-84
2021/06/19 02:25:07;;;;;;;0.50;0.50;;;;;;;16.33;71.62;100742.81;6278708;22;20111;-85
2021/06/19 02:27:33;;;;;;;0.88;0.50;;;;;;;16.42;71.17;100743.72;6278622;22;20043;-85
2021/06/19 02:30:00;;;;;;;0.75;0.50;;;;;;;16.52;70.25;100741.69;6254573;22;20213;-85
2021/06/19 02:32:26;;;;;;;0.40;0.40;;;;;;;16.60;70.23;100740.88;6306423;22;20023;-84
2021/06/19 02:34:52;;;;;;;0.50;0.50;;;;;;;16.67;70.55;100743.81;6276776;22;20083;-84
2021/06/19 02:37:19;;;;;;;0.65;0.50;;;;;;;16.77;69.94;100750.03;6307706;22;20016;-85
2021/06/19 02:39:46;;;;;;;0.93;0.60;;;;;;;16.85;69.76;100750.06;6279997;22;20083;-84
2021/06/19 02:42:12;;;;;;;0.40;0.40;;;;;;;16.91;69.39;100741.22;6305944;22;20465;-86
2021/06/19 02:44:38;;;;;;;0.40;0.40;;;;;;;16.97;68.84;100740.56;6281613;22;20177;-85
2021/06/19 02:47:04;;;;;;;0.40;0.40;;;;;;;17.03;68.36;100745.34;6282261;22;20478;-84
2021/06/19 02:49:30;;;;;;;1.20;0.60;;;;;;;17.06;69.21;100745.03;6285798;22;20019;-85
2021/06/19 02:51:57;;;;;;;0.40;0.40;;;;;;;17.04;69.69;100743.50;6288487;22;20015;-84
2021/06/19 02:54:23;;;;;;;0.55;0.55;;;;;;;17.07;69.56;100741.25;6291182;22;20073;-85
2021/06/19 02:56:50;;;;;;;0.57;0.50;;;;;;;17.23;69.20;100740.47;6241406;22;20019;-86
2021/06/19 02:59:15;;;;;;;0.70;0.47;;;;;;;17.39;68.35;100750.56;6266074;22;20029;-84
2021/06/19 03:01:42;;;;;;;0.50;0.50;;;;;;;17.55;67.75;100739.66;6266206;22;20046;-85
2021/06/19 03:04:07;;;;;;;0.50;0.50;;;;;;;17.62;67.69;100741.69;6291854;22;20437;-86
2021/06/19 03:06:34;;;;;;;0.60;0.57;;;;;;;17.75;67.71;100742.06;6238443;22;20053;-86
2021/06/19 03:09:01;;;;;;;0.50;0.50;;;;;;;17.76;67.13;100736.44;6293270;22;20011;-87
2021/06/19 03:11:28;;;;;;;1.45;0.77;;;;;;;17.83;67.13;100742.06;6297123;22;20050;-86
2021/06/19 03:13:54;;;;;;;0.88;0.65;;;;;;;17.90;67.00;100748.56;6241350;22;19995;-86
2021/06/19 03:16:21;;;;;;;0.70;0.70;;;;;;;18.03;66.54;100743.44;6244015;22;20032;-86
2021/06/19 03:18:47;;;;;;;0.70;0.70;;;;;;;18.08;66.47;100740.19;6294269;22;20520;-88
2021/06/19 03:21:12;;;;;;;0.70;0.70;;;;;;;18.22;66.72;100741.34;6269217;22;20019;-87
2021/06/19 03:23:39;;;;;;;0.85;0.70;;;;;;;18.22;66.48;100744.09;6292314;22;20015;-85
2021/06/19 07:23:03;;;;;;;1.20;1.20;;;;;;;32.32;30.81;100697.50;6271691;22;20008;31
2021/06/19 07:25:48;;;;;;;1.40;1.30;;;;;;;34.07;27.76;100689.41;6199597;22;20014;31
2021/06/19 07:31:17;;;;;;;1.13;1.13;;;;;;;33.62;29.33;100695.84;6286237;22;20015;-83
2021/06/19 07:34:10;;;;;;;1.10;1.10;;;;;;;34.07;28.50;100697.00;6222049;22;20479;31
2021/06/19 07:36:41;;;;;;;1.15;1.13;;;;;;;34.24;28.55;100691.94;6250548;22;20039;-83
2021/06/19 07:39:07;;;;;;;1.30;1.30;;;;;;;33.97;28.31;100688.53;6305030;22;20015;-81
2021/06/19 07:41:34;;;;;;;1.20;1.20;;;;;;;32.86;28.76;100700.06;6277799;22;20065;-80
2021/06/19 07:44:01;;;;;;;1.42;1.30;;;;;;;32.76;28.78;100693.59;6299240;22;20023;-81
2021/06/19 07:46:28;;;;;;;1.10;1.10;;;;;;;34.59;27.24;100687.34;6298677;22;20361;-81
2021/06/19 07:48:54;;;;;;;1.20;1.20;;;;;;;35.97;26.05;100689.38;6300227;22;20019;-82
2021/06/19 07:51:21;;;;;;;1.13;1.13;;;;;;;34.41;27.96;100685.13;6277959;22;20015;-81
2021/06/19 07:53:47;;;;;;;1.23;1.20;;;;;;;34.48;27.23;100680.06;6274347;22;20042;-82
2021/06/19 07:56:13;;;;;;;1.30;1.20;;;;;;;35.31;26.20;100684.25;6274190;22;20436;-81
2021/06/19 07:58:39;;;;;;;1.10;1.10;;;;;;;34.82;27.31;100680.25;6298728;22;20786;-80
2021/06/19 08:01:06;;;;;;;1.20;1.20;;;;;;;34.30;27.42;100679.56;6298912;22;20123;-81
2021/06/19 08:03:32;;;;;;;1.45;1.30;;;;;;;33.24;28.70;100675.59;6304533;22;20015;-82
2021/06/19 08:05:58;;;;;;;1.30;1.20;;;;;;;34.13;28.00;100662.19;6300986;22;20356;-81
2021/06/19 08:08:25;;;;;;;1.20;1.20;;;;;;;32.88;29.05;100678.25;6301644;22;20034;-80
2021/06/19 08:10:53;;;;;;;1.65;1.55;;;;;;;33.17;28.91;100675.00;6300935;22;20055;-81
2021/06/19 08:13:19;;;;;;;1.20;1.20;;;;;;;33.20;28.57;100674.44;6277533;22;20514;-83
2021/06/19 08:15:46;;;;;;;1.30;1.30;;;;;;;34.21;27.82;100664.41;6302044;22;20294;-83
2021/06/19 08:18:12;;;;;;;1.30;1.30;;;;;;;34.22;28.11;100677.31;6304527;22;20080;-80
2021/06/19 08:20:38;;;;;;;1.40;1.30;;;;;;;34.54;27.03;100674.19;6300805;22;20538;-81
2021/06/19 08:23:04;;;;;;;1.20;1.20;;;;;;;35.30;26.74;100668.50;6278246;22;20011;-82
2021/06/19 08:25:31;;;;;;;1.30;1.30;;;;;;;34.74;26.72;100667.66;6302740;22;20443;-82
2021/06/19 08:27:57;;;;;;;1.50;1.50;;;;;;;34.76;27.15;100665.38;6305388;22;20058;-81
2021/06/19 08:30:24;;;;;;;1.55;1.50;;;;;;;35.40;26.43;100662.81;6306153;22;20027;-81
2021/06/19 08:32:50;;;;;;;1.60;1.50;;;;;;;36.78;24.43;100658.69;6306444;22;20030;-81
2021/06/19 08:35:16;;;;;;;1.50;1.40;;;;;;;38.04;23.39;100662.72;6306273;22;20095;-80
2021/06/19 08:37:42;;;;;;;1.20;1.20;;;;;;;37.27;24.63;100665.94;6281696;22;20015;-82
2021/06/19 08:40:09;;;;;;;1.20;1.20;;;;;;;34.82;26.52;100651.34;6307811;22;20023;-81
2021/06/19 08:42:35;;;;;;;1.35;1.35;;;;;;;34.17;27.39;100652.06;6307651;22;20821;-81
2021/06/19 08:45:02;;;;;;;1.55;1.40;;;;;;;36.32;24.84;100645.97;6310276;22;20047;-84
2021/06/19 08:47:38;;;;;;;1.30;1.30;;;;;;;35.98;25.33;100638.44;6307947;22;20030;-84
2021/06/19 08:50:09;;;;;;;1.40;1.30;;;;;;;34.74;26.77;100641.53;6282391;22;20026;-84
2021/06/19 08:52:36;;;;;;;1.27;1.27;;;;;;;35.55;26.72;100634.59;6310416;22;20069;-83
2021/06/19 08:55:04;;;;;;;1.48;1.38;;;;;;;36.42;25.51;100640.22;6311146;22;20134;-83
2021/06/19 08:57:31;;;;;;;1.23;1.23;;;;;;;35.69;25.44;100632.78;6283213;22;20053;-83
2021/06/19 08:59:58;;;;;;;1.20;1.20;;;;;;;35.27;25.58;100630.56;6310095;22;20030;-82
2021/06/19 09:02:24;;;;;;;1.30;1.20;;;;;;;35.44;25.51;100635.78;6309601;22;20027;-81
2021/06/19 09:05:12;;;;;;;1.40;1.40;;;;;;;35.96;25.17;100634.22;6253193;22;20042;-81
2021/06/19 09:07:44;;;;;;;1.27;1.27;;;;;;;35.00;25.97;100637.47;6276836;22;20016;-81
2021/06/19 09:10:20;;;;;;;1.60;1.50;;;;;;;36.77;24.95;100634.47;6254029;22;20045;-80
2021/06/19 09:13:09;;;;;;;1.20;1.20;;;;;;;37.97;23.54;100623.59;6256279;22;20472;-82
2021/06/19 09:16:01;;;;;;;1.20;1.20;;;;;;;35.91;25.49;100623.03;6305873;22;20571;-84
2021/06/19 09:18:28;;;;;;;1.40;1.40;;;;;;;34.31;27.27;100627.91;6280296;22;20015;-82
2021/06/19 09:20:59;;;;;;;1.27;1.23;;;;;;;34.09;27.85;100618.97;6252763;22;20023;-82
2021/06/19 09:23:29;;;;;;;1.20;1.20;;;;;;;35.31;26.77;100613.94;6304817;22;20112;-81
2021/06/19 09:26:09;;;;;;;1.35;1.30;;;;;;;36.61;25.21;100614.94;6306559;22;20018;-81
2021/06/19 09:28:55;;;;;;;1.40;1.30;;;;;;;34.29;27.08;100612.44;6276496;22;20026;-83
2021/06/19 09:31:37;;;;;;;1.63;1.52;;;;;;;32.81;29.01;100621.63;6302235;22;20115;-86
2021/06/19 09:34:11;;;;;;;2.00;1.38;;;;;;;34.24;27.47;100618.09;6302720;22;20038;-83
2021/06/19 09:36:52;;;;;;;1.40;1.30;;;;;;;35.24;26.19;100614.25;6302003;22;20470;-82
2021/06/19 09:39:21;;;;;;;1.20;1.20;;;;;;;34.09;27.34;100610.56;6275753;22;20026;-81
2021/06/19 09:41:58;;;;;;;1.40;1.25;;;;;;;34.19;26.84;100610.53;6300218;22;20019;-83
2021/06/19 09:44:46;;;;;;;1.33;1.23;;;;;;;34.40;26.40;100610.44;6275615;22;20273;-82
2021/06/19 09:47:18;;;;;;;1.30;1.20;;;;;;;34.49;25.41;100614.38;6302864;22;20056;-82
2021/06/19 09:49:47;;;;;;;1.38;1.25;;;;;;;36.20;25.08;100615.41;6277569;22;20085;-82
2021/06/19 09:52:14;;;;;;;1.30;1.30;;;;;;;34.74;26.10;100610.63;6277700;22;20019;-82
2021/06/19 09:54:44;;;;;;;1.45;1.35;;;;;;;34.54;26.47;100611.56;6278357;22;20046;-82
2021/06/19 09:57:16;;;;;;;1.50;1.40;;;;;;;35.44;25.00;100602.03;6279495;22;20042;-81
2021/06/19 09:59:43;;;;;;;1.60;1.30;;;;;;;33.86;26.97;100606.38;6303704;22;20184;-82
2021/06/19 10:02:27;;;;;;;1.38;1.27;;;;;;;33.64;26.58;100598.25;6306941;22;20015;-81
2021/06/19 10:04:58;;;;;;;1.27;1.20;;;;;;;34.01;26.27;100597.94;6304763;22;20015;-81
2021/06/19 10:07:31;;;;;;;1.50;1.40;;;;;;;34.08;25.45;100592.03;6305029;22;20066;-81
2021/06/19 10:09:57;;;;;;;1.48;1.20;;;;;;;34.70;24.88;100604.75;6308173;22;20023;-80
2021/06/19 10:12:29;;;;;;;1.23;1.20;;;;;;;34.71;25.23;100605.59;6305803;22;20026;-82
2021/06/19 10:15:02;;;;;;;1.20;1.20;;;;;;;34.78;26.11;100601.31;6277653;22;20092;-83
2021/06/19 10:17:32;;;;;;;1.30;1.20;;;;;;;35.31;25.42;100597.91;6305235;22;20469;-83
2021/06/19 10:20:02;;;;;;;1.40;1.30;;;;;;;34.62;25.95;100594.09;6306824;22;20088;-81
2021/06/19 10:22:31;;;;;;;1.20;1.20;;;;;;;33.14;26.53;100588.69;6278872;22;20090;-82
2021/06/19 10:25:02;;;;;;;1.50;1.40;;;;;;;33.50;26.06;100586.75;6294754;22;20023;-82
2021/06/19 10:27:31;;;;;;;1.20;1.20;;;;;;;33.51;26.16;100587.59;6266977;22;20031;-81
2021/06/19 10:29:58;;;;;;;1.40;1.40;;;;;;;33.13;27.23;100581.41;6299537;22;20023;-81
2021/06/19 10:32:38;;;;;;;1.33;1.33;;;;;;;33.76;26.87;100579.16;6252727;22;20015;-82
2021/06/19 10:35:05;;;;;;;1.42;1.38;;;;;;;34.06;26.96;100577.44;6276418;22;20202;-82
2021/06/19 10:37:31;;;;;;;1.60;1.35;;;;;;;34.39;26.48;100572.28;6304051;22;20355;-84
2021/06/19 10:39:58;;;;;;;1.40;1.30;;;;;;;34.30;26.07;100553.22;6277605;22;20030;-82
2021/06/19 10:42:26;;;;;;;1.17;1.17;;;;;;;34.75;24.98;100556.94;6300735;22;20015;-81
2021/06/19 10:44:55;;;;;;;1.20;1.20;;;;;;;34.26;25.97;100549.31;6305808;22;20453;-85
2021/06/19 10:47:23;;;;;;;1.20;1.17;;;;;;;33.89;26.64;100560.06;6306054;22;20026;-81
2021/06/19 10:49:51;;;;;;;1.10;1.10;;;;;;;34.54;26.42;100558.19;6302435;22;20026;-84
2021/06/19 10:52:24;;;;;;;1.30;1.20;;;;;;;34.77;25.77;100560.31;6277509;22;20023;-82
2021/06/19 10:55:09;;;;;;;1.35;1.30;;;;;;;33.84;26.50;100547.72;6304033;22;20325;-82
2021/06/19 10:57:47;;;;;;;1.20;1.10;;;;;;;33.69;26.82;100556.16;6302371;22;20015;-83
2021/06/19 11:00:37;;;;;;;1.20;1.20;;;;;;;33.11;26.97;100558.41;6274225;22;20046;-80
2021/06/19 11:03:05;;;;;;;1.00;1.00;;;;;;;33.65;24.74;100554.22;6248313;22;20023;-81
2021/06/19 11:05:40;;;;;;;1.50;1.20;;;;;;;34.59;26.23;100555.34;6302268;22;20030;-80
2021/06/19 11:08:08;;;;;;;1.38;1.30;;;;;;;35.92;24.75;100551.50;6299903;22;20112;-82
2021/06/19 11:10:43;;;;;;;1.10;1.10;;;;;;;34.82;26.21;100552.97;6249377;22;20023;-82
2021/06/19 11:13:28;;;;;;;1.35;1.30;;;;;;;33.64;27.63;100547.78;6305442;22;20440;-82
2021/06/19 11:15:58;;;;;;;1.20;1.20;;;;;;;33.49;26.98;100536.56;6304688;22;20450;-83
2021/06/19 11:18:46;;;;;;;1.45;1.23;;;;;;;33.24;26.89;100532.63;6305656;22;20452;-83
2021/06/19 11:21:13;;;;;;;1.27;1.17;;;;;;;33.55;27.69;100538.25;6278596;22;20061;-82
2021/06/19 11:24:00;;;;;;;1.67;1.30;;;;;;;34.57;26.41;100537.94;6276891;22;20475;-82
2021/06/19 11:26:52;;;;;;;1.40;1.20;;;;;;;35.01;26.22;100531.50;6278067;22;20026;-81
2021/06/19 11:29:41;;;;;;;1.20;1.20;;;;;;;35.56;25.39;100532.19;6303603;22;20022;-83
2021/06/19 11:32:27;;;;;;;1.10;1.10;;;;;;;36.20;24.92;100525.31;6303514;22;20015;-82
2021/06/19 11:35:00;;;;;;;1.40;1.30;;;;;;;35.42;25.94;100522.72;6277698;22;20099;-81
2021/06/19 11:37:52;;;;;;;1.50;1.40;;;;;;;34.68;26.05;100517.09;6301877;22;20026;-81
2021/06/19 11:40:32;;;;;;;1.20;1.20;;;;;;;35.20;26.36;100511.97;6276677;22;20054;-81
2021/06/19 11:42:59;;;;;;;1.27;1.17;;;;;;;34.52;26.99;100521.97;6251447;22;20034;-83
2021/06/19 11:45:27;;;;;;;1.30;1.20;;;;;;;33.63;27.57;100518.03;6275213;22;20297;-85
2021/06/19 11:48:14;;;;;;;1.27;1.20;;;;;;;33.55;28.13;100513.00;6185398;23;20024;-81
2021/06/19 11:50:42;;;;;;;1.17;1.17;;;;;;;33.43;27.83;100506.84;6158443;23;20029;-81
2021/06/19 11:53:29;;;;;;;1.00;1.00;;;;;;;32.98;28.37;100500.09;6185905;23;20032;-78
2021/06/19 11:56:26;;;;;;;1.05;1.05;;;;;;;32.97;28.46;100513.28;6185396;23;20027;-81
2021/06/19 11:58:58;;;;;;;1.20;0.85;;;;;;;32.77;29.02;100502.88;6212445;23;20030;-81
2021/06/19 12:01:28;;;;;;;0.77;0.77;;;;;;;32.37;29.14;100507.22;6213032;23;20028;-84
2021/06/19 12:04:01;;;;;;;0.75;0.75;;;;;;;32.54;29.38;100489.38;6185318;23;20103;-81
2021/06/19 12:06:33;;;;;;;0.60;0.60;;;;;;;32.20;29.46;100495.41;6210234;23;20075;-81
2021/06/19 12:08:59;;;;;;;;;;;;;;;31.85;29.69;100494.13;6209221;23;20021;-81
2021/06/19 12:11:27;;;;;;;0.50;0.50;;;;;;;32.20;29.52;100484.22;6209109;23;19942;-83
2021/06/19 12:13:53;;;;;;;0.52;0.52;;;;;;;33.37;28.02;100487.19;6184842;23;20024;-83
2021/06/19 12:16:30;;;;;;;0.57;0.50;;;;;;;33.71;27.41;100480.16;6210725;23;20020;-83
2021/06/19 12:19:01;;;;;;;0.57;0.40;;;;;;;32.07;29.25;100484.72;6161744;23;20027;-82
2021/06/19 12:21:32;;;;;;;0.95;0.40;;;;;;;31.28;30.67;100483.66;6210950;23;20031;-82
2021/06/19 12:23:58;;;;;;;0.82;0.30;;;;;;;31.20;30.83;100482.19;6215052;23;20027;-81
2021/06/19 12:26:24;;;;;;;1.10;0.30;;;;;;;30.88;31.99;100476.63;6213702;23;20421;-81
2021/06/19 12:28:50;;;;;;;0.55;0.20;;;;;;;30.56;32.83;100470.97;6209874;23;20073;-79
2021/06/19 12:31:22;;;;;;;0.10;0.10;;;;;;;30.72;33.10;100480.34;6211761;23;20459;-85
2021/06/19 12:33:57;;;;;;;0.75;0.20;;;;;;;29.67;33.87;100480.47;6211982;23;20028;-81
2021/06/19 12:36:23;;;;;;;0.25;0.22;;;;;;;29.24;34.66;100472.81;6238194;23;20141;-81
2021/06/19 12:38:50;;;;;;;0.30;0.30;;;;;;;29.50;34.65;100474.88;6213117;23;20020;-81
2021/06/19 12:41:16;;;;;;;0.20;0.20;;;;;;;29.26;35.28;100479.84;6241518;23;20460;-79
2021/06/19 12:43:50;;;;;;;0.52;0.30;;;;;;;29.47;35.25;100472.66;6187156;23;20024;-79
2021/06/19 12:46:19;;;;;;;1.00;0.20;;;;;;;30.22;34.07;100470.34;6188217;23;20251;-79
2021/06/19 12:48:45;;;;;;;0.30;0.20;;;;;;;30.42;33.91;100459.41;6162611;23;20040;-80
2021/06/19 12:51:29;;;;;;;0.28;0.28;;;;;;;30.25;33.27;100464.22;6188172;23;20032;-78
2021/06/19 12:54:21;;;;;;;0.60;0.20;;;;;;;30.41;32.48;100452.13;6240960;23;20020;-81
2021/06/19 12:56:53;;;;;;;1.30;0.40;;;;;;;29.35;33.58;100455.16;6189090;23;20128;-81
2021/06/19 12:59:20;;;;;;;0.88;0.30;;;;;;;29.35;33.78;100451.53;6192351;23;20016;-83
2021/06/19 13:02:07;;;;;;;0.20;0.20;;;;;;;29.25;34.55;100449.44;6243592;23;20203;-80
2021/06/19 13:04:44;;;;;;;0.20;0.20;;;;;;;29.34;34.72;100447.91;5138633;27;20361;-81
2021/06/19 13:07:16;;;;;;;0.20;0.20;;;;;;;29.85;34.52;100450.59;5113178;27;20027;-81
2021/06/19 13:09:47;;;;;;;0.20;0.20;;;;;;;29.79;34.56;100444.94;5127495;28;20043;-84
2021/06/19 13:12:14;;;;;;;0.68;0.30;;;;;;;29.36;35.73;100445.69;5128178;28;20103;-79
2021/06/19 13:14:41;;;;;;;0.28;0.28;;;;;;;29.19;34.73;100447.69;5129532;27;20047;-83
2021/06/19 13:17:18;;;;;;;0.45;0.22;;;;;;;28.80;35.46;100430.88;5111929;28;20111;-81
2021/06/19 13:19:46;;;;;;;0.20;0.20;;;;;;;28.88;35.41;100438.78;5127543;28;20446;-82
2021/06/19 13:22:12;;;;;;;0.38;0.30;;;;;;;29.26;35.23;100434.44;5127581;27;20039;-81
2021/06/19 13:24:40;;;;;;;0.13;0.13;;;;;;;29.46;34.89;100431.09;5110275;28;20047;-81
2021/06/19 13:27:18;;;;;;;0.45;0.30;;;;;;;29.13;35.20;100426.41;5091712;28;20038;-82
2021/06/19 13:30:05;;;;;;;1.00;0.30;;;;;;;28.73;36.05;100424.63;5104160;28;20099;-81
2021/06/19 13:32:48;;;;;;;0.57;0.22;;;;;;;28.45;36.48;100417.16;5108011;28;20533;-82
2021/06/19 13:35:14;;;;;;;0.50;0.47;;;;;;;28.35;36.77;100412.25;5105384;28;20050;-82
2021/06/19 13:37:41;;;;;;;0.20;0.20;;;;;;;28.33;35.60;100406.91;5122367;28;20832;-82
2021/06/19 13:40:08;;;;;;;0.68;0.30;;;;;;;28.51;36.02;100421.75;5107116;28;20535;-81
2021/06/19 13:42:34;;;;;;;0.80;0.20;;;;;;;28.44;36.13;100413.53;5123952;28;20032;-80
2021/06/19 13:45:00;;;;;;;0.60;0.25;;;;;;;28.31;36.63;100405.50;5088502;28;20512;-79
2021/06/19 13:47:27;;;;;;;0.85;0.30;;;;;;;28.27;36.82;100407.94;5107840;28;20033;-81
2021/06/19 13:49:55;;;;;;;0.80;0.20;;;;;;;28.44;36.72;100402.41;5120027;28;20097;-83
2021/06/19 13:52:21;;;;;;;0.17;0.17;;;;;;;28.45;36.74;100406.03;5105976;28;20043;-81
2021/06/19 13:54:47;;;;;;;0.20;0.20;;;;;;;28.32;36.84;100396.06;5120523;28;20408;-79
2021/06/19 13:57:18;;;;;;;0.52;0.25;;;;;;;28.44;36.72;100391.28;5106984;28;20163;-83
2021/06/19 13:59:46;;;;;;;0.45;0.30;;;;;;;28.32;36.21;100390.50;5104173;28;20054;-81
2021/06/19 14:02:13;;;;;;;0.20;0.20;;;;;;;28.49;35.69;100388.63;5122331;28;20035;-81
2021/06/19 14:04:39;;;;;;;0.40;0.40;;;;;;;28.45;37.18;100379.09;5117019;28;20071;-80
2021/06/19 14:07:06;;;;;;;0.40;0.20;;;;;;;28.40;36.88;100387.31;5115581;28;20035;-79
2021/06/19 14:09:33;;;;;;;0.20;0.20;;;;;;;28.18;36.64;100378.00;5119228;27;20044;-80
2021/06/19 14:12:02;;;;;;;1.63;0.35;;;;;;;28.05;37.20;100380.00;5083133;28;20039;-80
2021/06/19 14:14:28;;;;;;;1.15;0.30;;;;;;;27.96;37.25;100381.47;5068537;28;20070;-82
2021/06/19 14:16:54;;;;;;;0.75;0.30;;;;;;;28.21;37.01;100383.91;5105318;28;20052;-79
2021/06/19 14:19:20;;;;;;;0.30;0.30;;;;;;;28.22;37.26;100379.19;5070194;28;20035;-82
2021/06/19 14:21:46;;;;;;;0.30;0.30;;;;;;;27.79;38.70;100370.31;5074871;28;20557;-76
2021/06/19 14:24:13;;;;;;;0.20;0.20;;;;;;;27.73;38.50;100381.53;5102911;27;20044;-82
2021/06/19 14:26:39;;;;;;;0.93;0.40;;;;;;;27.66;37.57;100370.56;5075919;28;20047;-80
2021/06/19 14:29:06;;;;;;;0.30;0.30;;;;;;;27.73;37.56;100378.75;5101385;28;20032;-82
2021/06/19 14:31:34;;;;;;;0.20;0.20;;;;;;;27.76;36.44;100375.53;5100965;28;20195;-82
2021/06/19 14:34:00;;;;;;;1.63;0.30;;;;;;;27.91;36.88;100378.59;5078384;28;20104;-80
2021/06/19 14:36:27;;;;;;;0.52;0.30;;;;;;;27.88;37.86;100384.66;5082629;28;20492;-79
2021/06/19 14:38:53;;;;;;;0.57;0.30;;;;;;;27.90;38.14;100382.47;5102016;28;20151;-79
2021/06/19 14:41:19;;;;;;;0.82;0.30;;;;;;;28.00;37.61;100379.03;5084681;28;20111;-82
2021/06/19 14:43:46;;;;;;;0.45;0.30;;;;;;;27.73;38.20;100381.53;5080169;28;20053;-81
2021/06/19 14:46:12;;;;;;;0.30;0.30;;;;;;;27.76;37.73;100375.53;5070034;28;20089;-79
2021/06/19 14:48:39;;;;;;;0.85;0.30;;;;;;;27.76;38.13;100369.97;5097278;28;20546;-84
2021/06/19 14:51:06;;;;;;;0.28;0.28;;;;;;;27.64;37.97;100368.03;5072933;28;20165;-80
2021/06/19 14:53:33;;;;;;;0.30;0.30;;;;;;;27.64;37.88;100370.81;5095686;28;20047;-81
2021/06/19 14:56:00;;;;;;;0.40;0.30;;;;;;;27.53;37.80;100359.72;5096815;28;20059;-81
2021/06/19 14:58:27;;;;;;;0.50;0.30;;;;;;;27.55;37.62;100361.16;5085715;28;20449;-81
2021/06/19 15:00:53;;;;;;;0.40;0.20;;;;;;;27.61;37.70;100368.53;5101858;28;20344;-78
2021/06/19 15:03:20;;;;;;;0.30;0.20;;;;;;;27.59;36.86;100359.59;5064105;28;20067;-79
2021/06/19 15:05:51;;;;;;;0.38;0.32;;;;;;;27.66;36.87;100353.88;5071091;28;20036;-77
2021/06/19 15:08:17;;;;;;;0.22;0.20;;;;;;;27.53;37.36;100360.56;5092405;28;20032;-77
2021/06/19 15:10:43;;;;;;;0.30;0.30;;;;;;;27.47;37.94;100356.00;5084078;28;20067;-79
2021/06/19 15:13:10;;;;;;;0.75;0.30;;;;;;;27.56;37.79;100359.22;5097685;28;20091;-82
2021/06/19 15:15:39;;;;;;;0.70;0.30;;;;;;;27.55;37.37;100358.38;5073434;28;20113;-84
2021/06/19 15:18:06;;;;;;;0.65;0.47;;;;;;;27.57;38.28;100356.22;5083576;28;20036;-81
2021/06/19 15:20:32;;;;;;;0.43;0.30;;;;;;;27.46;37.98;100354.31;5083560;28;20066;-82
2021/06/19 15:22:59;;;;;;;1.42;0.50;;;;;;;27.53;38.06;100355.00;5068833;28;20044;-81
2021/06/19 15:25:25;;;;;;;0.50;0.32;;;;;;;27.67;37.56;100361.13;5102833;27;20036;-80
2021/06/19 15:27:51;;;;;;;0.60;0.35;;;;;;;27.50;37.78;100360.22;5105224;28;20036;-81
2021/06/19 15:30:18;;;;;;;0.60;0.55;;;;;;;27.56;38.18;100360.06;5105687;28;20083;-80
2021/06/19 15:32:45;;;;;;;0.30;0.30;;;;;;;27.45;39.24;100352.59;5091708;28;20159;-83
2021/06/19 15:35:13;;;;;;;0.50;0.50;;;;;;;27.46;39.22;100357.09;5103246;28;20058;-81
2021/06/19 15:37:40;;;;;;;0.50;0.50;;;;;;;27.52;39.18;100364.44;5103684;28;20372;-81
2021/06/19 15:40:07;;;;;;;0.45;0.45;;;;;;;27.41;38.98;100351.41;5106008;28;20042;-79